메인 페이지
METAR-TAF:

METAR-TAF

공항 :

Guymon, 오클라호마, 미국

위도: 36-40-54N, 경도: 101-30-19W, 고도: 952m

현재 날씨관측

예보는 1 시간 2분 전, 01:53시(UTC)에 발표되었습니다.
남남서7kt
온도 9°C
습도 43%
기압 1020 hPa
시정: 16.1km
맑음

METAR: KGUY 190153Z AUTO 20007KT 10SM CLR 09/M03 A3012 RMK AO2 SLP195 T00891028

시각: 21:55 (02:55 UTC)

예보

예보는 3 시간 35분 전, 23:20시(UTC)에 발표되었습니다.
예보 대상 시간: 19일 00시부터 19일 24시까지 (UTC)
12kt
시정: 10km
고도 15000ft 상공 구름 조금
19일 1400시부터 (UTC)
북서13kt
시정: 10km
고도 5000ft 상공 구름 많음
19일 2200시부터 (UTC)
13kt, 순간 최대 풍속 20kt
시정: 10km
고도 2000ft 상공 구름 보통
고도 4000ft 상공 구름 많음

TAF: KGUY 182320Z 1900/1924 18012KT P6SM FEW150 FM191400 32013KT P6SM BKN050 FM192200 36013G20KT P6SM SCT020 BKN040

4,000개 이상의 공항 관측 자료 및 예보 (METAR 및 TAF 보고).

지도상에서 검색 가능한 기상관측소가 노란 점과 빨간 점으로 표시되어 있습니다.

기상관측소 명을 보려면 표시 위로 마우스를 이동하세요.

날씨 관측과 예보를 보려면 클릭하세요.

지도 변경 : 확대하려면 엑스 표시가 있는 녹색 버튼, 축소하려면 빼기 표시가 있는 녹색 버튼, 다음 페이지의 지도를 보려면 녹색 화살표를 클릭하세요.


METAR-TAF: